Time;durP1;ratioP1;P1;durP2;ratioP2;P2;SDS_P1;SDS_P2;PMS_P1;PMS_P2;Temp;Humidity;BMP_temperature;BMP_pressure;BME280_temperature;BME280_humidity;BME280_pressure;Samples;Min_cycle;Max_cycle;Signal;HPM_P1;HPM_P2
2023/01/25 00:01:36;;;;;;;38.10;20.50;;;;;0.90;103143.00;;;;10375024;28;20573;-76
2023/01/25 00:06:38;;;;;;;34.73;19.30;;;;;0.80;103132.00;;;;10371075;28;20728;-76
2023/01/25 00:11:43;;;;;;;38.90;21.43;;;;;0.80;103131.00;;;;10370646;28;20210;-76
2023/01/25 00:16:44;;;;;;;34.50;19.83;;;;;0.80;103127.00;;;;10388314;28;20195;-75
2023/01/25 00:21:47;;;;;;;32.70;17.77;;;;;0.80;103121.00;;;;10371380;28;20230;-75
2023/01/25 00:26:49;;;;;;;35.27;20.07;;;;;0.80;103113.00;;;;10381165;28;20213;-75
2023/01/25 00:32:04;;;;;;;39.20;20.30;;;;;0.80;103103.00;;;;10358106;28;20237;-76
2023/01/25 00:37:22;;;;;;;37.97;20.67;;;;;0.90;103098.00;;;;10383374;28;20575;-75
2023/01/25 00:42:24;;;;;;;39.50;21.33;;;;;0.90;103101.00;;;;10390035;28;20742;-76
2023/01/25 00:47:26;;;;;;;41.93;22.13;;;;;0.90;103104.00;;;;10384836;28;20214;-76
2023/01/25 00:52:28;;;;;;;37.07;20.70;;;;;0.90;103105.00;;;;10357154;28;20209;-75
2023/01/25 00:57:29;;;;;;;35.63;19.73;;;;;0.90;103091.00;;;;10357145;28;20624;-76
2023/01/25 01:02:32;;;;;;;34.00;19.07;;;;;0.90;103085.00;;;;10372423;28;20297;-75
2023/01/25 01:07:34;;;;;;;39.10;21.00;;;;;0.80;103090.00;;;;10372144;28;20203;-75
2023/01/25 01:12:36;;;;;;;39.10;20.97;;;;;0.80;103086.00;;;;10353352;28;20219;-76
2023/01/25 01:17:38;;;;;;;39.10;21.23;;;;;0.80;103072.00;;;;10383296;28;20195;-76
2023/01/25 01:22:40;;;;;;;35.40;19.60;;;;;0.80;103065.00;;;;10371790;28;20250;-75
2023/01/25 01:27:42;;;;;;;37.37;20.47;;;;;0.80;103066.00;;;;10387882;28;20204;-75
2023/01/25 01:32:44;;;;;;;44.47;22.20;;;;;0.80;103064.00;;;;10376627;28;20233;-75
2023/01/25 01:37:46;;;;;;;40.53;22.00;;;;;0.80;103077.00;;;;10370211;28;20602;-76
2023/01/25 01:43:01;;;;;;;35.83;19.13;;;;;0.70;103090.00;;;;10361463;28;20218;-75
2023/01/25 01:48:07;;;;;;;41.10;19.97;;;;;0.70;103086.00;;;;10379670;28;20203;-75
2023/01/25 01:53:09;;;;;;;41.67;22.20;;;;;0.70;103087.00;;;;10356568;28;20199;-75
2023/01/25 01:58:13;;;;;;;41.03;20.50;;;;;0.70;103089.00;;;;10363886;28;20206;-75
2023/01/25 02:09:51;;;;;;;38.70;20.00;;;;;0.70;103094.00;;;;10106512;29;20214;-78
2023/01/25 02:14:53;;;;;;;40.27;22.07;;;;;0.70;103092.00;;;;10097485;29;20670;-78
2023/01/25 02:20:15;;;;;;;38.73;19.57;;;;;0.60;103078.00;;;;10128877;29;20267;-79
2023/01/25 02:25:18;;;;;;;35.67;19.67;;;;;0.60;103072.00;;;;10110912;29;20245;-78
2023/01/25 02:30:20;;;;;;;43.47;20.83;;;;;0.60;103079.00;;;;10112803;29;20203;-78
2023/01/25 02:35:35;;;;;;;37.17;18.27;;;;;0.60;103072.00;;;;10139102;29;20211;-78
2023/01/25 02:40:47;;;;;;;34.60;19.20;;;;;0.60;103064.00;;;;10104439;29;20299;-78
2023/01/25 02:45:58;;;;;;;40.80;20.73;;;;;0.60;103062.00;;;;10149213;29;20226;-78
2023/01/25 02:51:01;;;;;;;38.57;19.70;;;;;0.60;103068.00;;;;10137572;29;20215;-78
2023/01/25 02:56:04;;;;;;;36.97;19.20;;;;;0.60;103055.00;;;;10097057;29;20212;-78
2023/01/25 03:01:06;;;;;;;38.47;19.87;;;;;0.60;103067.00;;;;10134829;29;20203;-79
2023/01/25 03:06:08;;;;;;;40.90;21.77;;;;;0.60;103062.00;;;;10141981;29;20219;-79
2023/01/25 03:11:10;;;;;;;37.00;19.83;;;;;0.60;103064.00;;;;10119827;29;20650;-78
2023/01/25 03:16:13;;;;;;;40.93;20.87;;;;;0.60;103055.00;;;;10113215;29;20199;-79
2023/01/25 03:21:19;;;;;;;40.60;20.60;;;;;0.50;103057.00;;;;10132137;29;20214;-79
2023/01/25 03:26:22;;;;;;;43.23;21.67;;;;;0.50;103047.00;;;;10103896;29;20282;-79
2023/01/25 03:31:45;;;;;;;39.97;20.87;;;;;0.50;103047.00;;;;10137933;29;20682;-79
2023/01/25 03:36:49;;;;;;;39.90;21.27;;;;;0.50;103044.00;;;;10113091;29;20196;-78
2023/01/25 03:41:52;;;;;;;34.17;19.77;;;;;0.50;103034.00;;;;10130108;29;20219;-78
2023/01/25 03:46:56;;;;;;;37.57;21.07;;;;;0.50;103033.00;;;;10129298;29;20207;-78
2023/01/25 03:51:58;;;;;;;41.03;19.13;;;;;0.40;103028.00;;;;10127814;29;20215;-78
2023/01/25 03:57:08;;;;;;;36.07;20.03;;;;;0.30;103022.00;;;;10098354;29;20214;-78
2023/01/25 04:02:33;;;;;;;40.73;22.87;;;;;0.30;103035.00;;;;10126364;29;20238;-79
2023/01/25 04:07:37;;;;;;;37.67;19.53;;;;;0.30;103035.00;;;;10144674;29;20253;-79
2023/01/25 04:12:41;;;;;;;35.63;20.13;;;;;0.20;103024.00;;;;10142427;29;20195;-78
2023/01/25 04:17:43;;;;;;;37.13;20.00;;;;;0.20;103031.00;;;;10131399;29;20203;-79
2023/01/25 04:22:54;;;;;;;33.27;19.03;;;;;0.20;103022.00;;;;10144441;29;20303;-79
2023/01/25 04:28:01;;;;;;;38.93;19.97;;;;;0.10;103017.00;;;;10092348;29;20234;-78
2023/01/25 04:33:04;;;;;;;36.33;18.73;;;;;0.10;103007.00;;;;10096163;29;20199;-78
2023/01/25 04:38:06;;;;;;;38.90;19.20;;;;;0.20;103005.00;;;;10087017;29;20756;-79
2023/01/25 04:43:14;;;;;;;42.60;21.47;;;;;0.20;103010.00;;;;10092936;29;20219;-78
2023/01/25 04:48:18;;;;;;;36.87;20.13;;;;;0.20;103010.00;;;;10117364;29;20211;-78
2023/01/25 04:53:26;;;;;;;41.13;20.03;;;;;0.20;103016.00;;;;10092205;29;20202;-78
2023/01/25 04:58:30;;;;;;;32.27;18.07;;;;;0.20;103009.00;;;;10126148;29;20637;-79
2023/01/25 05:03:32;;;;;;;33.90;19.60;;;;;0.20;103009.00;;;;10102404;29;20228;-78
2023/01/25 05:08:34;;;;;;;37.97;20.33;;;;;0.20;103013.00;;;;10084576;29;20258;-78
2023/01/25 05:13:37;;;;;;;35.73;18.83;;;;;0.20;102993.00;;;;10131979;29;20199;-79
2023/01/25 05:18:56;;;;;;;42.33;22.80;;;;;0.20;103003.00;;;;10083664;29;20439;-79
2023/01/25 05:24:07;;;;;;;40.60;21.10;;;;;0.20;102997.00;;;;10097081;29;20246;-79
2023/01/25 05:29:09;;;;;;;41.63;21.13;;;;;0.20;102990.00;;;;10099017;29;20287;-78
2023/01/25 05:34:25;;;;;;;38.57;20.97;;;;;0.20;102980.00;;;;10105460;29;20306;-78
2023/01/25 05:39:28;;;;;;;40.20;20.80;;;;;0.10;102973.00;;;;10112155;29;20314;-79
2023/01/25 05:44:30;;;;;;;41.67;22.10;;;;;0.10;102970.00;;;;10118766;29;20230;-78
2023/01/25 05:49:32;;;;;;;42.83;22.60;;;;;0.10;102974.00;;;;10100682;29;20208;-78
2023/01/25 05:54:36;;;;;;;41.73;21.77;;;;;0.10;102978.00;;;;10118098;29;20306;-79
2023/01/25 05:59:39;;;;;;;42.07;21.30;;;;;0.10;102960.00;;;;10125146;29;20301;-78
2023/01/25 06:04:43;;;;;;;42.87;20.00;;;;;0.10;102971.00;;;;10113251;29;20223;-78
2023/01/25 06:09:47;;;;;;;40.37;20.23;;;;;0.10;102974.00;;;;10113477;29;20214;-79
2023/01/25 06:14:49;;;;;;;39.43;20.67;;;;;0.10;102975.00;;;;10110985;29;20671;-78
2023/01/25 06:19:51;;;;;;;38.33;19.50;;;;;0.10;102975.00;;;;10118367;29;20195;-78
2023/01/25 06:25:12;;;;;;;38.67;20.17;;;;;0.00;102973.00;;;;10073085;29;20809;-78
2023/01/25 06:30:14;;;;;;;39.07;19.23;;;;;0.00;102960.00;;;;10126467;29;20218;-79
2023/01/25 06:35:16;;;;;;;42.80;20.63;;;;;0.00;102967.00;;;;10081162;29;20272;-78
2023/01/25 06:40:18;;;;;;;37.53;19.27;;;;;-0.10;102962.00;;;;10094860;29;20235;-79
2023/01/25 06:45:20;;;;;;;36.97;19.83;;;;;-0.10;102954.00;;;;10074521;29;20232;-79
2023/01/25 06:50:25;;;;;;;44.60;20.80;;;;;-0.10;102953.00;;;;10099755;29;20238;-78
2023/01/25 06:55:27;;;;;;;44.87;21.00;;;;;-0.10;102966.00;;;;10126620;29;20229;-78
2023/01/25 07:00:29;;;;;;;43.93;20.20;;;;;-0.10;102973.00;;;;10119308;29;20302;-78
2023/01/25 07:05:32;;;;;;;46.23;19.10;;;;;-0.10;102957.00;;;;10095109;29;20218;-78
2023/01/25 07:10:33;;;;;;;33.50;18.93;;;;;-0.10;102948.00;;;;10125526;29;20206;-78
2023/01/25 07:15:36;;;;;;;37.87;19.13;;;;;-0.20;102959.00;;;;10124082;29;20191;-78
2023/01/25 07:20:38;;;;;;;37.03;19.13;;;;;-0.20;102955.00;;;;10125302;29;20210;-78
2023/01/25 07:25:48;;;;;;;42.20;18.90;;;;;-0.20;102948.00;;;;10126151;29;20231;-78
2023/01/25 07:30:50;;;;;;;35.10;18.50;;;;;-0.20;102957.00;;;;10142002;29;20674;-79
2023/01/25 07:35:52;;;;;;;37.53;19.10;;;;;-0.20;102946.00;;;;10066510;29;20210;-78
2023/01/25 07:40:54;;;;;;;37.33;18.87;;;;;-0.30;102951.00;;;;10144809;29;20269;-79
2023/01/25 07:46:11;;;;;;;39.67;19.20;;;;;-0.30;102946.00;;;;10109406;29;20274;-78
2023/01/25 07:51:25;;;;;;;42.97;20.93;;;;;-0.30;102952.00;;;;10134983;29;20204;-78
2023/01/25 07:56:36;;;;;;;42.80;20.77;;;;;-0.20;102956.00;;;;10111136;29;20654;-79
2023/01/25 08:01:39;;;;;;;39.50;19.63;;;;;-0.20;102946.00;;;;10117961;29;20207;-79
2023/01/25 08:06:41;;;;;;;49.17;21.97;;;;;-0.10;102940.00;;;;10119332;29;20238;-79
2023/01/25 08:11:43;;;;;;;47.07;21.67;;;;;0.00;102936.00;;;;10100063;29;20200;-78
2023/01/25 08:16:44;;;;;;;42.77;20.33;;;;;0.00;102936.00;;;;10117023;29;20219;-79
2023/01/25 08:21:46;;;;;;;47.83;24.20;;;;;0.10;102941.00;;;;10113899;29;20234;-78
2023/01/25 08:26:48;;;;;;;43.33;21.03;;;;;0.10;102931.00;;;;10115224;29;20223;-78
2023/01/25 08:31:50;;;;;;;48.13;22.60;;;;;0.20;102932.00;;;;10118083;29;20211;-78
2023/01/25 08:36:52;;;;;;;46.87;23.23;;;;;0.20;102942.00;;;;10109928;29;20215;-78
2023/01/25 08:41:54;;;;;;;45.47;22.77;;;;;0.30;102932.00;;;;10095112;29;20212;-78
2023/01/25 08:46:56;;;;;;;42.63;22.40;;;;;0.20;102923.00;;;;10113756;29;20203;-78
2023/01/25 08:51:58;;;;;;;44.53;23.10;;;;;0.20;102917.00;;;;10103470;29;20203;-78
2023/01/25 08:57:00;;;;;;;50.90;23.47;;;;;0.20;102919.00;;;;10114224;29;20188;-78
2023/01/25 09:02:02;;;;;;;42.80;22.23;;;;;0.30;102914.00;;;;10113274;29;20202;-78
2023/01/25 09:07:04;;;;;;;45.53;22.03;;;;;0.40;102917.00;;;;10113662;29;20234;-78
2023/01/25 09:12:08;;;;;;;41.53;21.00;;;;;0.50;102916.00;;;;10099176;29;20191;-78
2023/01/25 09:17:10;;;;;;;46.60;21.13;;;;;0.60;102910.00;;;;10099810;29;20271;-78
2023/01/25 09:22:12;;;;;;;38.83;20.07;;;;;0.60;102921.00;;;;10113409;29;20267;-78
2023/01/25 09:27:14;;;;;;;44.30;21.50;;;;;0.60;102916.00;;;;10094616;29;20679;-78
2023/01/25 09:32:18;;;;;;;48.90;23.70;;;;;0.60;102924.00;;;;10119723;29;20718;-78
2023/01/25 09:37:26;;;;;;;38.43;21.10;;;;;0.50;102922.00;;;;10127499;29;20243;-78
2023/01/25 09:42:53;;;;;;;44.80;23.00;;;;;0.50;102915.00;;;;10117419;29;20239;-78
2023/01/25 09:48:03;;;;;;;41.93;21.37;;;;;0.50;102918.00;;;;10112000;29;20226;-78
2023/01/25 09:53:19;;;;;;;41.57;21.10;;;;;0.60;102918.00;;;;10112791;29;20208;-78
2023/01/25 09:58:34;;;;;;;44.97;21.17;;;;;0.70;102912.00;;;;10114292;29;20211;-78
2023/01/25 10:04:03;;;;;;;44.33;21.40;;;;;0.70;102904.00;;;;10092732;29;20223;-78
2023/01/25 10:09:30;;;;;;;45.30;21.47;;;;;0.50;102897.00;;;;10090421;29;20298;-78
2023/01/25 10:14:34;;;;;;;45.00;21.97;;;;;0.60;102900.00;;;;10113862;29;20202;-78
2023/01/25 10:20:26;;;;;;;45.83;21.37;;;;;0.40;102905.00;;;;10074981;29;20227;-78
2023/01/25 10:25:35;;;;;;;46.87;20.83;;;;;0.40;102895.00;;;;10078384;29;20219;-78
2023/01/25 10:30:45;;;;;;;48.50;22.37;;;;;0.50;102891.00;;;;10095059;29;20207;-78
2023/01/25 10:35:48;;;;;;;52.20;24.13;;;;;0.50;102888.00;;;;10109790;29;20215;-77
2023/01/25 10:41:01;;;;;;;43.87;22.17;;;;;0.60;102871.00;;;;10122027;29;20258;-78
2023/01/25 10:46:15;;;;;;;44.70;22.00;;;;;0.60;102862.00;;;;10105859;29;20256;-77
2023/01/25 10:51:34;;;;;;;48.47;22.60;;;;;0.50;102855.00;;;;10123780;29;20251;-78
2023/01/25 10:56:38;;;;;;;48.43;22.87;;;;;0.50;102842.00;;;;10096962;29;20242;-78
2023/01/25 11:01:42;;;;;;;47.57;23.93;;;;;0.70;102833.00;;;;10107322;29;20709;-78
2023/01/25 11:06:51;;;;;;;47.30;23.50;;;;;0.80;102815.00;;;;10093322;29;20309;-78
2023/01/25 11:11:55;;;;;;;48.47;21.87;;;;;0.90;102804.00;;;;10078460;29;20215;-78
2023/01/25 11:16:59;;;;;;;46.43;22.47;;;;;1.00;102795.00;;;;10076981;29;20604;-78
2023/01/25 11:22:23;;;;;;;51.60;22.47;;;;;1.10;102787.00;;;;10094218;29;20219;-77
2023/01/25 11:27:26;;;;;;;53.23;24.67;;;;;1.10;102771.00;;;;10109561;29;20211;-78
2023/01/25 11:32:28;;;;;;;53.30;23.50;;;;;1.20;102761.00;;;;10100701;29;20208;-78
2023/01/25 11:37:47;;;;;;;56.87;24.07;;;;;1.30;102752.00;;;;10098905;29;20286;-79
2023/01/25 11:43:18;;;;;;;55.70;26.63;;;;;1.20;102745.00;;;;10120932;29;20219;-78
2023/01/25 11:48:25;;;;;;;53.47;24.83;;;;;1.10;102728.00;;;;10089755;29;20218;-78
2023/01/25 11:53:52;;;;;;;53.93;25.50;;;;;1.20;102718.00;;;;10094898;29;20578;-78
2023/01/25 11:59:34;;;;;;;52.07;24.77;;;;;1.30;102700.00;;;;10109525;29;20231;-78
2023/01/25 12:04:38;;;;;;;50.40;23.67;;;;;1.30;102692.00;;;;10092202;29;20219;-78
2023/01/25 12:09:56;;;;;;;55.83;27.90;;;;;1.10;102678.00;;;;10097886;29;20266;-79
2023/01/25 12:15:05;;;;;;;48.10;24.70;;;;;1.10;102668.00;;;;10094230;29;20199;-79
2023/01/25 12:20:17;;;;;;;53.43;25.07;;;;;1.30;102646.00;;;;10103330;29;20278;-79
2023/01/25 12:25:19;;;;;;;53.67;25.43;;;;;1.30;102644.00;;;;10125009;29;20227;-79
2023/01/25 12:30:30;;;;;;;58.60;26.63;;;;;1.40;102629.00;;;;10098942;29;20224;-79
2023/01/25 12:35:43;;;;;;;55.83;26.07;;;;;1.50;102623.00;;;;10110237;29;20254;-78
2023/01/25 12:41:01;;;;;;;58.43;25.30;;;;;1.40;102607.00;;;;10087199;29;20613;-78
2023/01/25 12:46:12;;;;;;;58.90;26.23;;;;;1.60;102596.00;;;;10110482;29;20326;-78
2023/01/25 12:51:16;;;;;;;55.97;25.23;;;;;1.50;102579.00;;;;10107084;29;20204;-78
2023/01/25 12:56:39;;;;;;;49.03;24.77;;;;;1.30;102570.00;;;;10086367;29;20219;-79
2023/01/25 13:01:56;;;;;;;52.27;26.00;;;;;1.50;102553.00;;;;10092727;29;20215;-78
2023/01/25 13:07:09;;;;;;;55.67;26.37;;;;;1.50;102547.00;;;;10070372;29;20226;-78
2023/01/25 13:12:11;;;;;;;60.57;25.83;;;;;1.50;102539.00;;;;10094064;29;20327;-79
2023/01/25 13:17:31;;;;;;;65.20;28.17;;;;;1.70;102531.00;;;;10110676;29;20208;-79
2023/01/25 13:22:43;;;;;;;56.67;26.90;;;;;1.70;102528.00;;;;10109357;29;20784;-79
2023/01/25 13:27:45;;;;;;;59.37;26.10;;;;;1.60;102526.00;;;;10109402;29;20690;-79
2023/01/25 13:32:50;;;;;;;65.33;28.23;;;;;1.60;102516.00;;;;10078319;29;20212;-79
2023/01/25 13:38:01;;;;;;;65.00;28.50;;;;;1.60;102499.00;;;;10103352;29;20508;-79
2023/01/25 13:43:11;;;;;;;61.07;26.53;;;;;1.70;102494.00;;;;10127826;29;20787;-79
2023/01/25 13:48:20;;;;;;;65.57;29.00;;;;;1.60;102482.00;;;;10110824;29;20212;-79
2023/01/25 13:53:44;;;;;;;64.30;28.57;;;;;1.50;102476.00;;;;10115660;29;20200;-78
2023/01/25 13:58:46;;;;;;;62.13;27.87;;;;;1.50;102474.00;;;;10092014;29;20873;-78
2023/01/25 14:03:53;;;;;;;63.77;27.63;;;;;1.60;102468.00;;;;10097517;29;20230;-78
2023/01/25 14:08:58;;;;;;;55.60;25.93;;;;;1.60;102466.00;;;;10093959;29;20223;-78
2023/01/25 14:14:14;;;;;;;67.20;29.83;;;;;1.60;102473.00;;;;10111794;29;20203;-78
2023/01/25 14:19:24;;;;;;;71.17;30.17;;;;;1.60;102476.00;;;;10118074;29;20211;-78
2023/01/25 14:24:26;;;;;;;71.97;29.90;;;;;1.60;102478.00;;;;10109073;29;20225;-79
2023/01/25 14:29:28;;;;;;;63.03;27.70;;;;;1.60;102481.00;;;;10108360;29;20215;-79
2023/01/25 14:34:34;;;;;;;63.63;28.40;;;;;1.40;102473.00;;;;10093344;29;20254;-79
2023/01/25 14:39:36;;;;;;;69.97;29.20;;;;;1.30;102472.00;;;;10100098;29;20294;-79
2023/01/25 14:44:38;;;;;;;62.03;28.20;;;;;1.30;102479.00;;;;10085511;29;20231;-78
2023/01/25 14:49:40;;;;;;;71.93;31.33;;;;;1.40;102476.00;;;;10111492;29;20275;-79
2023/01/25 14:54:46;;;;;;;67.17;29.77;;;;;1.40;102471.00;;;;10096193;29;20291;-79
2023/01/25 14:59:52;;;;;;;74.73;31.30;;;;;1.30;102462.00;;;;10092244;29;20214;-79
2023/01/25 15:05:01;;;;;;;69.80;29.53;;;;;1.10;102451.00;;;;10093497;29;20763;-79
2023/01/25 15:10:16;;;;;;;62.87;26.47;;;;;0.90;102457.00;;;;10083668;29;20211;-78
2023/01/25 15:15:20;;;;;;;62.13;28.90;;;;;0.80;102449.00;;;;10125393;29;20203;-79
2023/01/25 15:20:30;;;;;;;59.33;28.47;;;;;0.80;102450.00;;;;10094558;29;20258;-78
2023/01/25 15:25:32;;;;;;;66.57;29.17;;;;;0.70;102457.00;;;;10111604;29;20216;-79
2023/01/25 15:30:34;;;;;;;70.37;29.80;;;;;0.50;102433.00;;;;10095189;29;20203;-79
2023/01/25 15:35:36;;;;;;;57.60;28.10;;;;;0.40;102433.00;;;;10093359;29;20257;-79
2023/01/25 15:40:38;;;;;;;64.57;27.30;;;;;0.30;102436.00;;;;10109899;29;20255;-79
2023/01/25 15:45:42;;;;;;;66.37;28.47;;;;;0.20;102431.00;;;;10081568;29;20223;-79
2023/01/25 15:50:44;;;;;;;56.53;25.37;;;;;0.20;102416.00;;;;10140150;29;20204;-78
2023/01/25 15:55:49;;;;;;;61.00;26.33;;;;;0.10;102427.00;;;;10120454;29;20218;-79
2023/01/25 16:00:51;;;;;;;65.93;28.33;;;;;0.00;102429.00;;;;10086146;29;20207;-79
2023/01/25 16:06:00;;;;;;;60.90;25.40;;;;;0.00;102417.00;;;;10102319;29;20279;-78
2023/01/25 16:11:02;;;;;;;57.93;25.07;;;;;-0.10;102419.00;;;;10140413;29;20544;-79
2023/01/25 16:16:09;;;;;;;59.83;27.27;;;;;-0.10;102422.00;;;;10123407;29;20590;-79
2023/01/25 16:21:12;;;;;;;69.97;29.47;;;;;-0.30;102437.00;;;;10126014;29;20218;-79
2023/01/25 16:26:24;;;;;;;62.67;26.80;;;;;-0.40;102446.00;;;;10103847;29;20231;-79
2023/01/25 16:31:26;;;;;;;64.40;26.93;;;;;-0.50;102444.00;;;;10077371;29;20714;-79
2023/01/25 16:36:34;;;;;;;59.07;23.97;;;;;-0.60;102445.00;;;;10116128;29;20218;-78
2023/01/25 16:41:38;;;;;;;55.87;24.00;;;;;-0.70;102445.00;;;;10109704;29;20277;-78
2023/01/25 16:46:40;;;;;;;59.00;24.17;;;;;-0.90;102452.00;;;;10109602;29;20231;-79
2023/01/25 16:51:44;;;;;;;61.80;24.47;;;;;-0.80;102465.00;;;;10115770;29;20207;-78
2023/01/25 16:56:47;;;;;;;66.50;24.70;;;;;-0.80;102475.00;;;;10097465;29;20240;-78
2023/01/25 17:01:49;;;;;;;66.47;27.97;;;;;-0.80;102468.00;;;;10094591;29;20212;-78
2023/01/25 17:06:51;;;;;;;39.10;17.37;;;;;-1.00;102466.00;;;;10075701;29;20215;-78
2023/01/25 17:11:54;;;;;;;70.10;25.03;;;;;-1.10;102453.00;;;;10130830;29;20204;-78
2023/01/25 17:16:56;;;;;;;61.97;25.00;;;;;-1.10;102447.00;;;;10120967;29;20204;-78
2023/01/25 17:21:58;;;;;;;72.33;25.20;;;;;-1.10;102454.00;;;;10113653;29;20200;-78
2023/01/25 17:27:00;;;;;;;76.80;27.00;;;;;-1.00;102441.00;;;;10098681;29;20204;-78
2023/01/25 17:32:02;;;;;;;72.80;27.63;;;;;-0.90;102418.00;;;;10100095;29;20207;-78
2023/01/25 17:37:04;;;;;;;77.87;25.50;;;;;-0.80;102403.00;;;;10134244;29;20215;-78
2023/01/25 17:42:07;;;;;;;64.00;24.73;;;;;-0.80;102402.00;;;;10125453;29;20200;-78
2023/01/25 17:47:09;;;;;;;70.43;26.43;;;;;-0.70;102391.00;;;;10090172;29;20231;-78
2023/01/25 17:52:11;;;;;;;75.83;30.03;;;;;-0.70;102374.00;;;;10085800;29;20195;-78
2023/01/25 17:57:16;;;;;;;81.33;26.10;;;;;-0.60;102353.00;;;;10098069;29;20199;-78
2023/01/25 18:02:19;;;;;;;73.83;25.30;;;;;-0.60;102333.00;;;;10097856;29;20207;-78
2023/01/25 18:07:21;;;;;;;65.23;24.27;;;;;-0.70;102328.00;;;;10117881;29;20275;-78
2023/01/25 18:12:23;;;;;;;67.83;25.53;;;;;-0.70;102297.00;;;;10098396;29;20230;-78
2023/01/25 18:17:25;;;;;;;88.87;26.53;;;;;-0.70;102286.00;;;;10075004;29;20203;-78
2023/01/25 18:22:28;;;;;;;64.63;22.90;;;;;-0.60;102271.00;;;;10126841;29;20204;-79
2023/01/25 18:27:30;;;;;;;72.67;27.63;;;;;-0.70;102265.00;;;;10111596;29;20735;-78
2023/01/25 18:32:32;;;;;;;69.63;24.97;;;;;-0.70;102243.00;;;;10080804;29;20750;-78
2023/01/25 18:37:42;;;;;;;66.23;23.73;;;;;-0.60;102245.00;;;;10119722;29;20203;-78
2023/01/25 18:42:44;;;;;;;66.50;24.90;;;;;-0.60;102228.00;;;;10083816;29;20524;-79
2023/01/25 18:47:46;;;;;;;72.03;26.60;;;;;-0.60;102219.00;;;;10081548;29;20227;-79
2023/01/25 18:52:48;;;;;;;63.30;25.37;;;;;-0.60;102208.00;;;;10113877;29;20643;-79
2023/01/25 18:57:50;;;;;;;64.23;24.83;;;;;-0.60;102221.00;;;;10105905;29;20187;-79
2023/01/25 19:02:52;;;;;;;67.27;25.43;;;;;-0.60;102222.00;;;;10117796;29;20208;-79
2023/01/25 19:07:54;;;;;;;77.87;27.70;;;;;-0.60;102223.00;;;;10092596;29;20235;-79
2023/01/25 19:12:56;;;;;;;71.47;25.07;;;;;-0.60;102216.00;;;;10113452;29;20240;-78
2023/01/25 19:17:58;;;;;;;75.07;25.00;;;;;-0.50;102206.00;;;;10079292;29;20207;-79
2023/01/25 19:23:00;;;;;;;75.60;28.47;;;;;-0.50;102195.00;;;;10101689;29;20757;-79
2023/01/25 19:28:02;;;;;;;69.67;25.10;;;;;-0.50;102196.00;;;;10086734;29;20238;-79
2023/01/25 19:33:04;;;;;;;76.47;26.00;;;;;-0.40;102191.00;;;;10118740;29;20207;-78
2023/01/25 19:38:06;;;;;;;65.23;25.17;;;;;-0.40;102163.00;;;;10114343;29;20254;-79
2023/01/25 19:43:08;;;;;;;68.47;23.70;;;;;-0.40;102145.00;;;;10118390;29;20267;-79
2023/01/25 19:48:10;;;;;;;67.00;23.37;;;;;-0.40;102157.00;;;;10089827;29;20257;-79
2023/01/25 19:53:12;;;;;;;75.23;23.17;;;;;-0.40;102165.00;;;;10135150;29;20214;-79
2023/01/25 19:58:16;;;;;;;65.53;25.13;;;;;-0.50;102170.00;;;;10132233;29;20200;-78
2023/01/25 20:03:18;;;;;;;75.07;24.93;;;;;-0.40;102158.00;;;;10108926;29;20215;-78
2023/01/25 20:08:20;;;;;;;60.87;20.20;;;;;-0.50;102145.00;;;;10109889;29;20236;-79
2023/01/25 20:13:22;;;;;;;59.93;22.37;;;;;-0.50;102129.00;;;;10128340;29;20338;-78
2023/01/25 20:18:25;;;;;;;60.73;21.23;;;;;-0.50;102134.00;;;;10124735;29;20231;-79
2023/01/25 20:23:32;;;;;;;74.67;25.43;;;;;-0.60;102121.00;;;;10110203;29;20231;-79
2023/01/25 20:28:35;;;;;;;81.87;24.37;;;;;-0.60;102125.00;;;;10099138;29;20314;-78
2023/01/25 20:33:37;;;;;;;64.43;22.17;;;;;-0.70;102126.00;;;;10094674;29;20227;-78
2023/01/25 20:38:39;;;;;;;86.77;25.47;;;;;-0.70;102125.00;;;;10108681;29;20211;-79
2023/01/25 20:43:46;;;;;;;76.37;24.23;;;;;-0.60;102116.00;;;;10086340;29;20203;-78
2023/01/25 20:48:53;;;;;;;76.67;23.43;;;;;-0.60;102102.00;;;;10109039;29;20210;-78
2023/01/25 20:53:55;;;;;;;73.53;22.87;;;;;-0.60;102113.00;;;;10101657;29;20227;-79
2023/01/25 20:58:57;;;;;;;78.57;26.87;;;;;-0.60;102115.00;;;;10111135;29;20251;-79
2023/01/25 21:03:59;;;;;;;69.00;23.83;;;;;-0.60;102111.00;;;;10109338;29;20195;-79
2023/01/25 21:09:03;;;;;;;78.60;25.83;;;;;-0.50;102109.00;;;;10100932;29;20308;-78
2023/01/25 21:14:05;;;;;;;77.27;22.57;;;;;-0.50;102100.00;;;;10092438;29;20208;-79
2023/01/25 21:19:07;;;;;;;79.27;25.93;;;;;-0.50;102090.00;;;;10090935;29;20203;-78
2023/01/25 21:24:10;;;;;;;85.50;26.23;;;;;-0.50;102083.00;;;;10077048;29;20228;-78
2023/01/25 21:29:12;;;;;;;77.50;25.13;;;;;-0.50;102086.00;;;;10108268;29;20343;-78
2023/01/25 21:34:15;;;;;;;76.77;25.10;;;;;-0.50;102083.00;;;;10088159;29;20319;-78
2023/01/25 21:39:17;;;;;;;69.77;21.97;;;;;-0.50;102058.00;;;;10092584;29;20212;-79
2023/01/25 21:55:00;;;;;;;66.27;22.90;;;;;-0.50;102064.00;;;;10103961;29;20235;-78
2023/01/25 22:00:04;;;;;;;65.23;22.33;;;;;-0.60;102059.00;;;;10107460;29;20207;-79
2023/01/25 22:05:06;;;;;;;71.33;20.97;;;;;-0.50;102061.00;;;;10089300;29;20320;-78
2023/01/25 22:10:10;;;;;;;71.17;21.93;;;;;-0.50;102061.00;;;;10082483;29;20212;-79
2023/01/25 22:15:13;;;;;;;67.83;20.93;;;;;-0.50;102057.00;;;;10084997;29;20952;-79
2023/01/25 22:20:15;;;;;;;68.53;21.47;;;;;-0.50;102053.00;;;;10065385;29;20202;-78
2023/01/25 22:25:17;;;;;;;61.40;20.87;;;;;-0.50;102055.00;;;;10114343;29;20666;-78
2023/01/25 22:30:19;;;;;;;74.13;21.57;;;;;-0.60;102061.00;;;;10114287;29;20195;-79
2023/01/25 22:35:20;;;;;;;60.67;20.60;;;;;-0.60;102076.00;;;;10112588;29;20211;-78
2023/01/25 22:40:22;;;;;;;76.10;21.03;;;;;-0.60;102069.00;;;;10113029;29;20192;-78
2023/01/25 22:45:24;;;;;;;67.53;20.27;;;;;-0.60;102063.00;;;;10082678;29;20310;-78
2023/01/25 22:50:26;;;;;;;76.83;21.67;;;;;-0.60;102064.00;;;;10128605;29;20226;-79
2023/01/25 22:55:29;;;;;;;72.77;21.10;;;;;-0.50;102043.00;;;;10097243;29;20235;-78
2023/01/25 23:00:31;;;;;;;84.13;23.00;;;;;-0.50;102045.00;;;;10079864;29;20211;-79
2023/01/25 23:05:33;;;;;;;64.03;19.70;;;;;-0.50;102040.00;;;;10097602;29;20231;-78
2023/01/25 23:10:35;;;;;;;71.97;21.97;;;;;-0.50;102032.00;;;;10096600;29;20196;-78
2023/01/25 23:15:40;;;;;;;75.30;22.07;;;;;-0.50;102024.00;;;;10096843;29;20255;-78
2023/01/25 23:20:44;;;;;;;66.07;19.00;;;;;-0.50;102026.00;;;;10113102;29;20195;-78
2023/01/25 23:25:46;;;;;;;61.13;19.07;;;;;-0.50;102021.00;;;;10111886;29;20219;-79
2023/01/25 23:30:48;;;;;;;63.03;20.67;;;;;-0.50;102012.00;;;;10089902;29;20261;-79
2023/01/25 23:35:50;;;;;;;61.77;20.07;;;;;-0.50;102006.00;;;;10073527;29;20204;-79
2023/01/25 23:40:52;;;;;;;64.93;20.60;;;;;-0.60;102013.00;;;;10111637;29;20203;-79
2023/01/25 23:45:54;;;;;;;61.13;21.37;;;;;-0.60;102000.00;;;;10092782;29;20223;-78
2023/01/25 23:50:57;;;;;;;71.93;20.47;;;;;-0.60;102002.00;;;;10096140;29;20200;-79
2023/01/25 23:56:01;;;;;;;59.67;20.47;;;;;-0.50;101997.00;;;;10125291;29;20291;-79
